Terminal Aerodrome Forecast
Issued by NWS Boston, MA

Home | Current Version | Previous Version | Text Only | Print | Product List | Glossary On
Versions: 1 2 3 4 5 6 7 8 9 10 11 12 13 14 15 16 17 18 19 20 21 22 23 24 25 26 27 28 29 30 31 32 33 34
000
FTUS41 KBOX 180827 AAE
TAFBDL
TAF AMD
KBDL 180827Z 1808/1912 35005KT 1 1/2SM -SN BR SCT008 OVC015
     FM180930 34006KT 3SM -SN OVC025
     FM181100 31008KT P6SM SCT060
     FM181200 31010KT P6SM FEW110
     FM181500 33014G24KT P6SM FEW250
     FM181800 31010KT P6SM FEW250
     FM190500 00000KT P6SM FEW150=

USA.gov is the U.S. government's official web portal to all federal, state and local government web resources and services.